Airfield :
LOGIN :

Register | Disclaimer

   EN    FR    IT 

 










Legend :    VFR   Marginal VFR   IFR   Intensive IFR   Very Intensive IFR
Visi :
Ceiling :
>= 8 km
>= 3000ft
5 to 8 km
1000 to 3000 ft
1500m to 5 km
500 to 1000 ft
800 to 1500m
200 to 500 ft
< 800m
< 200 ft
Symbols :   Thunderstorms  Fog  Heavy snow  Heavy precipitations  Wind > 20 kt
SIGMETs :     Misc.  Thunderstorms  Icing  Turbulence  Mountain Waves  Volcanic Ashes






- Airport Elevation : 1273 ft
- IATA code : LJU


LJLJ - Ljubljana

CURRENT METAR :
  • 041100Z 06005KT 010V100 9999 FEW075 SCT120 32/12 Q1017 NOSIG

EXPIRED METARs :
  • 041030Z 08004KT 020V130 9999 FEW075 SCT120 31/13 Q1017 NOSIG
  • 041000Z 10005KT 030V120 9999 FEW075 SCT110 31/12 Q1017 NOSIG
  • 040930Z 10004KT 060V150 9999 FEW075 SCT110 30/15 Q1017 NOSIG
  • 040900Z VRB02KT 9999 FEW075 SCT110 28/17 Q1017 NOSIG
  • 040830Z 09002KT 9999 FEW075 SCT110 28/16 Q1017 NOSIG

TAF TAF LJLJ
Valid from the 04 at 06:00 until the 05 at 06:00 UTC


040500Z 0406/0506 VRB02KT CAVOK
TEMPO 0412/0416 13010KT
PROB40
TEMPO 0415/0506 VRB20G35KT TSRA BKN050CB



MET'MAP, your aeronautical weather chart ! - Copyright ORBIFLY December 2007 - Disclaimer

ORBIFLY MET'MAP TEAM :

Programming & Development : Alexandra Zaïnal
Original concept : Baudouin d'Aumeries
Technical & hardware support : Manuel Goepfert
Assistance : Marc-Olivier Méhu




SOURCES & CREDITS :

   NOAA